createdAt,value
2023-03-12T00:09:10.590Z,97201.69
2023-03-12T00:19:31.802Z,97185.53
2023-03-12T00:29:53.394Z,97211.28
2023-03-12T00:40:14.946Z,97212.97
2023-03-12T00:50:36.071Z,97214.34
2023-03-12T01:00:58.086Z,97229.81
2023-03-12T01:11:20.562Z,97234.03
2023-03-12T01:21:41.849Z,97240.59
2023-03-12T01:32:03.362Z,97265.53
2023-03-12T01:42:24.386Z,97273.03
2023-03-12T01:52:46.260Z,97308.94
2023-03-12T02:03:09.616Z,97336.91
2023-03-12T02:13:34.069Z,97364.09
2023-03-12T02:24:06.678Z,97392.72
2023-03-12T02:34:28.842Z,97408.69
2023-03-12T02:44:50.734Z,97425.06
2023-03-12T02:55:12.519Z,97448.69
2023-03-12T03:05:37.124Z,97473.72
2023-03-12T03:15:59.794Z,97488.91
2023-03-12T03:26:24.007Z,97503.88
2023-03-12T03:36:45.899Z,97538.06
2023-03-12T03:47:09.970Z,97532.81
2023-03-12T03:57:32.311Z,97547.88
2023-03-12T04:07:54.792Z,97581.53
2023-03-12T04:18:20.139Z,97610.41
2023-03-12T04:28:42.184Z,97632.28
2023-03-12T04:39:07.219Z,97663.81
2023-03-12T04:49:28.930Z,97668.97
2023-03-12T04:59:51.215Z,97691.19
2023-03-12T05:10:13.575Z,97715.69
2023-03-12T05:20:35.259Z,97760.41
2023-03-12T05:30:58.406Z,97807.81
2023-03-12T05:41:28.141Z,97816.69
2023-03-12T05:51:53.686Z,97854.31
2023-03-12T06:02:17.559Z,97879.84
2023-03-12T06:12:39.834Z,97905.75
2023-03-12T06:23:01.824Z,97952.66
2023-03-12T06:33:23.868Z,97980.75
2023-03-12T06:43:45.847Z,98005.03
2023-03-12T06:54:07.365Z,98034.59
2023-03-12T07:04:29.166Z,98059.63
2023-03-12T07:14:51.032Z,98090.72
2023-03-12T07:25:12.654Z,98121.44
2023-03-12T07:35:34.579Z,98144.28
2023-03-12T07:45:56.915Z,98184.44
2023-03-12T07:56:18.885Z,98200.34
2023-03-12T08:06:42.887Z,98231.78
2023-03-12T08:17:05.274Z,98251.81
2023-03-12T08:27:26.549Z,98275.47
2023-03-12T08:37:47.946Z,98295.69
2023-03-12T08:48:09.802Z,98320.47
2023-03-12T08:58:31.659Z,98332.63
2023-03-12T09:08:53.623Z,98358.09
2023-03-12T09:19:15.846Z,98376.16
2023-03-12T09:29:43.779Z,98401.75
2023-03-12T09:40:22.008Z,98435.00
2023-03-12T09:50:46.570Z,98456.47
2023-03-12T10:01:13.987Z,98481.94
2023-03-12T10:12:10.588Z,98489.31
2023-03-12T10:22:34.696Z,98520.75
2023-03-12T10:33:04.314Z,98543.59
2023-03-12T10:43:25.765Z,98535.44
2023-03-12T10:53:50.172Z,98542.81
2023-03-12T11:04:18.955Z,98560.00
2023-03-12T11:14:34.400Z,98560.41
2023-03-12T11:25:01.528Z,98568.38
2023-03-12T11:35:45.769Z,98579.19
2023-03-12T11:46:18.093Z,98598.38
2023-03-12T11:56:41.002Z,98612.19
2023-03-12T12:07:08.734Z,98652.00
2023-03-12T12:17:37.371Z,98651.19
2023-03-12T12:28:35.389Z,98653.69
2023-03-12T12:39:06.182Z,98673.91
2023-03-12T12:49:52.192Z,98676.94
2023-03-12T13:00:38.281Z,98695.41
2023-03-12T13:11:16.120Z,98703.78
2023-03-12T13:21:47.741Z,98715.31
2023-03-12T13:32:39.011Z,98740.19
2023-03-12T13:43:33.692Z,98743.56
2023-03-12T13:54:01.854Z,98730.38
2023-03-12T14:04:29.756Z,98722.00
2023-03-12T14:15:12.038Z,98744.09
2023-03-12T14:25:42.468Z,98747.84
2023-03-12T14:36:16.936Z,98767.63
2023-03-12T14:46:47.621Z,98790.78
2023-03-12T14:57:19.713Z,98817.22
2023-03-12T15:07:41.178Z,98801.78
2023-03-12T15:18:10.852Z,98820.94
2023-03-12T15:28:32.474Z,98832.06
2023-03-12T15:39:33.590Z,98844.94
2023-03-12T15:50:11.805Z,98854.06
2023-03-12T16:00:45.195Z,98881.94
2023-03-12T16:11:18.800Z,98899.56
2023-03-12T16:21:40.658Z,98916.44
2023-03-12T16:32:02.843Z,98949.69
2023-03-12T16:42:24.628Z,98988.91
2023-03-12T16:52:47.063Z,99018.19
2023-03-12T17:03:10.600Z,99045.78
2023-03-12T17:13:31.983Z,99078.28
2023-03-12T17:23:53.594Z,99095.84
2023-03-12T17:34:15.842Z,99110.81
2023-03-12T17:44:39.099Z,99121.47
2023-03-12T17:55:01.165Z,99147.22
2023-03-12T18:05:23.160Z,99159.50
2023-03-12T18:15:55.222Z,99170.38
2023-03-12T18:26:16.697Z,99182.97
2023-03-12T18:36:38.470Z,99197.19
2023-03-12T18:47:00.500Z,99214.78
2023-03-12T18:57:22.156Z,99228.69
2023-03-12T19:07:44.312Z,99254.53
2023-03-12T19:18:06.269Z,99269.19
2023-03-12T19:28:27.644Z,99280.69
2023-03-12T19:38:49.592Z,99310.09
2023-03-12T19:49:11.204Z,99324.31
2023-03-12T19:59:32.782Z,99342.47
2023-03-12T20:09:54.005Z,99397.78
2023-03-12T20:20:16.749Z,99421.66
2023-03-12T20:30:41.358Z,99413.56
2023-03-12T20:41:03.599Z,99424.16
2023-03-12T20:51:25.431Z,99445.69
2023-03-12T21:01:46.848Z,99466.50
2023-03-12T21:12:08.463Z,99452.34
2023-03-12T21:22:31.758Z,99464.09
2023-03-12T21:32:53.261Z,99473.25
2023-03-12T21:43:14.882Z,99490.72
2023-03-12T21:53:37.711Z,99514.03
2023-03-12T22:04:01.069Z,99534.16
2023-03-12T22:14:19.201Z,99557.03
2023-03-12T22:24:40.260Z,99587.19
2023-03-12T22:35:01.874Z,99612.19
2023-03-12T22:45:23.259Z,99645.47
2023-03-12T22:55:44.599Z,99652.22
2023-03-12T23:06:14.383Z,99660.53
2023-03-12T23:16:36.167Z,99683.00
2023-03-12T23:26:57.327Z,99695.50
2023-03-12T23:37:18.354Z,99716.34
2023-03-12T23:47:39.983Z,99717.22
2023-03-12T23:58:01.561Z,99733.78
